Blue Eastern — WDI6914 — position and weather

sailwx.info

Track history (hours):
 
Tides and Currents Weather Stations Pressure Air Temp Water Temp Dewpoint Dewpoint Depression Visibility Wind Speed Wind Dir Waves Ship Positions

Blue Eastern

Owner: BHF Blue Eastern LLC, Naples, FL. More information available from US FCC via Universal Licensing System and Coast Guard Vessel Documentation Center.

Last reported at 2017-Nov-05 22:48 UTC. Time now 2017-Dec-13 09:25 UTC.
Position N 39°07' W 073°25'.
Warning: this ship's position is 37 days out of date.

Length 28 m.

Type: Fishing. MMSI: 367723510.

Date/timePositionNaut miles runAvg speedWind from/ knotsBaromVisibWave heightAir tempDewpointWater temp
2017-Nov-05 22:48N 39°07' W 073°25'0 0.5
2017-Nov-05 22:02N 39°07' W 073°25'0 5.3
2017-Nov-05 22:01N 39°07' W 073°25'  
2017-Oct-29 14:42N 41°38' W 070°55'0 0.0
2017-Oct-29 14:22N 41°38' W 070°55'0 0.0
2017-Oct-29 13:36N 41°38' W 070°55'129 4.6
2017-Oct-28 09:24N 39°60' W 072°45'6 5.2
2017-Oct-28 08:11N 40°00' W 072°54'6 3.7
2017-Oct-28 06:35N 39°60' W 072°46'1 5.1
2017-Oct-28 06:20N 39°60' W 072°48'3 5.0
2017-Oct-28 05:48N 39°60' W 072°51'2 5.2
2017-Oct-28 05:27N 40°00' W 072°54'  
Track history (hours):
 
Tides and Currents Weather Stations Pressure Air Temp Water Temp Dewpoint Dewpoint Depression Visibility Wind Speed Wind Dir Waves Ship Positions

Blue Eastern

Owner: BHF Blue Eastern LLC, Naples, FL. More information available from US FCC via Universal Licensing System and Coast Guard Vessel Documentation Center.

Last reported at 2017-Nov-05 22:48 UTC. Time now 2017-Dec-13 09:25 UTC.
Position N 39°07' W 073°25'.
Warning: this ship's position is 37 days out of date.

Length 28 m.

Type: Fishing. MMSI: 367723510.

Date/timePositionNaut miles runAvg speedWind from/ knotsBaromVisibWave heightAir tempDewpointWater temp
2017-Nov-05 22:48N 39°07' W 073°25'0 0.5
2017-Nov-05 22:02N 39°07' W 073°25'0 5.3
2017-Nov-05 22:01N 39°07' W 073°25'  
2017-Oct-29 14:42N 41°38' W 070°55'0 0.0
2017-Oct-29 14:22N 41°38' W 070°55'0 0.0
2017-Oct-29 13:36N 41°38' W 070°55'129 4.6
2017-Oct-28 09:24N 39°60' W 072°45'6 5.2
2017-Oct-28 08:11N 40°00' W 072°54'6 3.7
2017-Oct-28 06:35N 39°60' W 072°46'1 5.1
2017-Oct-28 06:20N 39°60' W 072°48'3 5.0
2017-Oct-28 05:48N 39°60' W 072°51'2 5.2
2017-Oct-28 05:27N 40°00' W 072°54'  

Dump ship's entire track history